sensor_id;sensor_type;location;lat;lon;timestamp;temperature;humidity
11136;DHT22;5622;50.840;4.948;2022-11-20T00:00:19;4.80;99.90
11136;DHT22;5622;50.840;4.948;2022-11-20T00:02:46;5.00;99.90
11136;DHT22;5622;50.840;4.948;2022-11-20T00:05:14;4.50;99.90
11136;DHT22;5622;50.840;4.948;2022-11-20T00:07:42;4.50;99.90
11136;DHT22;5622;50.840;4.948;2022-11-20T00:10:09;4.50;99.90
11136;DHT22;5622;50.840;4.948;2022-11-20T00:12:36;5.30;99.90
11136;DHT22;5622;50.840;4.948;2022-11-20T00:15:04;4.50;99.90
11136;DHT22;5622;50.840;4.948;2022-11-20T00:17:31;4.50;99.90
11136;DHT22;5622;50.840;4.948;2022-11-20T00:19:58;5.00;99.90
11136;DHT22;5622;50.840;4.948;2022-11-20T00:22:25;4.50;99.90
11136;DHT22;5622;50.840;4.948;2022-11-20T00:24:54;4.70;99.90
11136;DHT22;5622;50.840;4.948;2022-11-20T00:27:22;4.50;99.90
11136;DHT22;5622;50.840;4.948;2022-11-20T00:29:49;4.40;99.90
11136;DHT22;5622;50.840;4.948;2022-11-20T00:32:16;4.30;99.90
11136;DHT22;5622;50.840;4.948;2022-11-20T00:34:43;4.30;99.90
11136;DHT22;5622;50.840;4.948;2022-11-20T00:37:10;4.40;99.90
11136;DHT22;5622;50.840;4.948;2022-11-20T00:39:37;4.30;99.90
11136;DHT22;5622;50.840;4.948;2022-11-20T00:42:06;4.30;99.90
11136;DHT22;5622;50.840;4.948;2022-11-20T00:44:33;4.60;99.90
11136;DHT22;5622;50.840;4.948;2022-11-20T00:47:00;4.80;99.90
11136;DHT22;5622;50.840;4.948;2022-11-20T00:49:27;4.90;99.90
11136;DHT22;5622;50.840;4.948;2022-11-20T00:51:54;4.40;99.90
11136;DHT22;5622;50.840;4.948;2022-11-20T00:54:21;5.30;99.90
11136;DHT22;5622;50.840;4.948;2022-11-20T00:56:48;4.50;99.90
11136;DHT22;5622;50.840;4.948;2022-11-20T00:59:17;5.30;99.90
11136;DHT22;5622;50.840;4.948;2022-11-20T01:01:44;5.00;99.90
11136;DHT22;5622;50.840;4.948;2022-11-20T01:04:11;4.50;99.90
11136;DHT22;5622;50.840;4.948;2022-11-20T01:06:39;5.10;99.90
11136;DHT22;5622;50.840;4.948;2022-11-20T01:09:09;4.40;99.90
11136;DHT22;5622;50.840;4.948;2022-11-20T01:11:37;4.80;99.90
11136;DHT22;5622;50.840;4.948;2022-11-20T01:14:09;5.30;99.90
11136;DHT22;5622;50.840;4.948;2022-11-20T01:16:41;4.30;99.90
11136;DHT22;5622;50.840;4.948;2022-11-20T01:19:11;4.20;99.90
11136;DHT22;5622;50.840;4.948;2022-11-20T01:21:40;4.50;99.90
11136;DHT22;5622;50.840;4.948;2022-11-20T01:24:10;5.60;99.90
11136;DHT22;5622;50.840;4.948;2022-11-20T01:26:38;4.20;99.90
11136;DHT22;5622;50.840;4.948;2022-11-20T01:29:07;5.50;99.90
11136;DHT22;5622;50.840;4.948;2022-11-20T01:31:36;4.30;99.90
11136;DHT22;5622;50.840;4.948;2022-11-20T01:34:06;4.30;99.90
11136;DHT22;5622;50.840;4.948;2022-11-20T01:36:35;4.30;99.90
11136;DHT22;5622;50.840;4.948;2022-11-20T01:39:04;4.40;99.90
11136;DHT22;5622;50.840;4.948;2022-11-20T01:41:33;4.70;99.90
11136;DHT22;5622;50.840;4.948;2022-11-20T01:44:20;4.40;99.90
11136;DHT22;5622;50.840;4.948;2022-11-20T01:46:54;4.70;99.90
11136;DHT22;5622;50.840;4.948;2022-11-20T01:49:27;4.90;99.90
11136;DHT22;5622;50.840;4.948;2022-11-20T01:51:58;4.40;99.90
11136;DHT22;5622;50.840;4.948;2022-11-20T01:54:33;4.50;99.90
11136;DHT22;5622;50.840;4.948;2022-11-20T01:57:04;4.50;99.90
11136;DHT22;5622;50.840;4.948;2022-11-20T01:59:33;4.50;99.90
11136;DHT22;5622;50.840;4.948;2022-11-20T02:02:00;5.00;99.90
11136;DHT22;5622;50.840;4.948;2022-11-20T02:04:29;4.40;99.90
11136;DHT22;5622;50.840;4.948;2022-11-20T02:06:59;4.40;99.90
11136;DHT22;5622;50.840;4.948;2022-11-20T02:09:27;4.70;99.90
11136;DHT22;5622;50.840;4.948;2022-11-20T02:11:54;4.50;99.90
11136;DHT22;5622;50.840;4.948;2022-11-20T02:14:22;4.50;99.90
11136;DHT22;5622;50.840;4.948;2022-11-20T02:16:49;4.50;99.90
11136;DHT22;5622;50.840;4.948;2022-11-20T02:19:24;4.70;99.90
11136;DHT22;5622;50.840;4.948;2022-11-20T02:22:00;4.70;99.90
11136;DHT22;5622;50.840;4.948;2022-11-20T02:24:30;4.40;99.90
11136;DHT22;5622;50.840;4.948;2022-11-20T02:27:16;5.80;99.90
11136;DHT22;5622;50.840;4.948;2022-11-20T02:29:47;4.40;99.90
11136;DHT22;5622;50.840;4.948;2022-11-20T02:32:20;4.30;99.90
11136;DHT22;5622;50.840;4.948;2022-11-20T02:34:48;5.30;99.90
11136;DHT22;5622;50.840;4.948;2022-11-20T02:37:16;4.40;99.90
11136;DHT22;5622;50.840;4.948;2022-11-20T02:39:46;5.60;99.90
11136;DHT22;5622;50.840;4.948;2022-11-20T02:42:14;4.40;99.90
11136;DHT22;5622;50.840;4.948;2022-11-20T02:44:41;4.50;99.90
11136;DHT22;5622;50.840;4.948;2022-11-20T02:47:08;4.40;99.90
11136;DHT22;5622;50.840;4.948;2022-11-20T02:49:35;5.60;99.90
11136;DHT22;5622;50.840;4.948;2022-11-20T02:52:03;4.50;99.90
11136;DHT22;5622;50.840;4.948;2022-11-20T02:54:30;4.40;99.90
11136;DHT22;5622;50.840;4.948;2022-11-20T02:56:58;4.60;99.90
11136;DHT22;5622;50.840;4.948;2022-11-20T02:59:25;4.70;99.90
11136;DHT22;5622;50.840;4.948;2022-11-20T03:01:52;5.10;99.90
11136;DHT22;5622;50.840;4.948;2022-11-20T03:04:19;5.40;99.90
11136;DHT22;5622;50.840;4.948;2022-11-20T03:06:46;4.70;99.90
11136;DHT22;5622;50.840;4.948;2022-11-20T03:09:13;4.40;99.90
11136;DHT22;5622;50.840;4.948;2022-11-20T03:11:40;4.90;99.90
11136;DHT22;5622;50.840;4.948;2022-11-20T03:14:09;4.40;99.90
11136;DHT22;5622;50.840;4.948;2022-11-20T03:16:36;4.40;99.90
11136;DHT22;5622;50.840;4.948;2022-11-20T03:19:03;4.40;99.90
11136;DHT22;5622;50.840;4.948;2022-11-20T03:21:30;5.10;99.90
11136;DHT22;5622;50.840;4.948;2022-11-20T03:23:59;5.90;99.90
11136;DHT22;5622;50.840;4.948;2022-11-20T03:26:26;4.50;99.90
11136;DHT22;5622;50.840;4.948;2022-11-20T03:28:55;4.50;99.90
11136;DHT22;5622;50.840;4.948;2022-11-20T03:31:26;4.40;99.90
11136;DHT22;5622;50.840;4.948;2022-11-20T03:33:53;5.10;99.90
11136;DHT22;5622;50.840;4.948;2022-11-20T03:36:20;5.30;99.90
11136;DHT22;5622;50.840;4.948;2022-11-20T03:38:48;5.20;99.90
11136;DHT22;5622;50.840;4.948;2022-11-20T03:41:19;4.80;99.90
11136;DHT22;5622;50.840;4.948;2022-11-20T03:43:48;4.40;99.90
11136;DHT22;5622;50.840;4.948;2022-11-20T03:46:15;4.40;99.90
11136;DHT22;5622;50.840;4.948;2022-11-20T03:48:44;4.60;99.90
11136;DHT22;5622;50.840;4.948;2022-11-20T03:51:13;4.40;99.90
11136;DHT22;5622;50.840;4.948;2022-11-20T03:53:41;5.30;99.90
11136;DHT22;5622;50.840;4.948;2022-11-20T03:56:10;4.40;99.90
11136;DHT22;5622;50.840;4.948;2022-11-20T03:58:39;5.30;99.90
11136;DHT22;5622;50.840;4.948;2022-11-20T04:01:07;4.40;99.90
11136;DHT22;5622;50.840;4.948;2022-11-20T04:03:35;4.40;99.90
11136;DHT22;5622;50.840;4.948;2022-11-20T04:06:07;4.30;99.90
11136;DHT22;5622;50.840;4.948;2022-11-20T04:08:34;4.30;99.90
11136;DHT22;5622;50.840;4.948;2022-11-20T04:11:09;4.60;99.90
11136;DHT22;5622;50.840;4.948;2022-11-20T04:13:36;4.30;99.90
11136;DHT22;5622;50.840;4.948;2022-11-20T04:16:04;5.00;99.90
11136;DHT22;5622;50.840;4.948;2022-11-20T04:18:31;4.40;99.90
11136;DHT22;5622;50.840;4.948;2022-11-20T04:20:59;5.70;99.90
11136;DHT22;5622;50.840;4.948;2022-11-20T04:23:27;4.60;99.90
11136;DHT22;5622;50.840;4.948;2022-11-20T04:25:54;5.60;99.90
11136;DHT22;5622;50.840;4.948;2022-11-20T04:28:22;4.40;99.90
11136;DHT22;5622;50.840;4.948;2022-11-20T04:30:49;4.40;99.90
11136;DHT22;5622;50.840;4.948;2022-11-20T04:33:16;4.50;99.90
11136;DHT22;5622;50.840;4.948;2022-11-20T04:35:43;4.40;99.90
11136;DHT22;5622;50.840;4.948;2022-11-20T04:38:11;5.10;99.90
11136;DHT22;5622;50.840;4.948;2022-11-20T04:40:39;4.50;99.90
11136;DHT22;5622;50.840;4.948;2022-11-20T04:43:06;5.70;99.90
11136;DHT22;5622;50.840;4.948;2022-11-20T04:45:33;4.50;99.90
11136;DHT22;5622;50.840;4.948;2022-11-20T04:48:01;4.50;99.90
11136;DHT22;5622;50.840;4.948;2022-11-20T04:50:28;5.20;99.90
11136;DHT22;5622;50.840;4.948;2022-11-20T04:52:55;4.70;99.90
11136;DHT22;5622;50.840;4.948;2022-11-20T04:55:22;4.50;99.90
11136;DHT22;5622;50.840;4.948;2022-11-20T04:57:51;5.60;99.90
11136;DHT22;5622;50.840;4.948;2022-11-20T05:00:18;4.60;99.90
11136;DHT22;5622;50.840;4.948;2022-11-20T05:02:45;4.60;99.90
11136;DHT22;5622;50.840;4.948;2022-11-20T05:05:13;5.30;99.90
11136;DHT22;5622;50.840;4.948;2022-11-20T05:07:40;4.60;99.90
11136;DHT22;5622;50.840;4.948;2022-11-20T05:10:07;4.60;99.90
11136;DHT22;5622;50.840;4.948;2022-11-20T05:12:34;4.60;99.90
11136;DHT22;5622;50.840;4.948;2022-11-20T05:15:03;4.50;99.90
11136;DHT22;5622;50.840;4.948;2022-11-20T05:17:31;4.50;99.90
11136;DHT22;5622;50.840;4.948;2022-11-20T05:19:58;4.50;99.90
11136;DHT22;5622;50.840;4.948;2022-11-20T05:22:25;4.50;99.90
11136;DHT22;5622;50.840;4.948;2022-11-20T05:24:52;4.80;99.90
11136;DHT22;5622;50.840;4.948;2022-11-20T05:27:19;4.50;99.90
11136;DHT22;5622;50.840;4.948;2022-11-20T05:29:46;4.50;99.90
11136;DHT22;5622;50.840;4.948;2022-11-20T05:32:14;4.40;99.90
11136;DHT22;5622;50.840;4.948;2022-11-20T05:34:41;4.40;99.90
11136;DHT22;5622;50.840;4.948;2022-11-20T05:37:09;4.40;99.90
11136;DHT22;5622;50.840;4.948;2022-11-20T05:39:36;4.30;99.90
11136;DHT22;5622;50.840;4.948;2022-11-20T05:42:03;4.90;99.90
11136;DHT22;5622;50.840;4.948;2022-11-20T05:44:48;4.30;99.90
11136;DHT22;5622;50.840;4.948;2022-11-20T05:47:16;4.50;99.90
11136;DHT22;5622;50.840;4.948;2022-11-20T05:49:43;4.30;99.90
11136;DHT22;5622;50.840;4.948;2022-11-20T05:52:10;4.50;99.90
11136;DHT22;5622;50.840;4.948;2022-11-20T05:54:37;5.20;99.90
11136;DHT22;5622;50.840;4.948;2022-11-20T05:57:04;5.00;99.90
11136;DHT22;5622;50.840;4.948;2022-11-20T05:59:31;4.40;99.90
11136;DHT22;5622;50.840;4.948;2022-11-20T06:01:58;4.90;99.90
11136;DHT22;5622;50.840;4.948;2022-11-20T06:04:27;4.50;99.90
11136;DHT22;5622;50.840;4.948;2022-11-20T06:06:54;4.50;99.90
11136;DHT22;5622;50.840;4.948;2022-11-20T06:09:21;4.60;99.90
11136;DHT22;5622;50.840;4.948;2022-11-20T06:11:48;4.60;99.90
11136;DHT22;5622;50.840;4.948;2022-11-20T06:14:15;4.50;99.90
11136;DHT22;5622;50.840;4.948;2022-11-20T06:16:42;4.50;99.90
11136;DHT22;5622;50.840;4.948;2022-11-20T06:19:09;4.80;99.90
11136;DHT22;5622;50.840;4.948;2022-11-20T06:21:38;5.10;99.90
11136;DHT22;5622;50.840;4.948;2022-11-20T06:24:05;4.50;99.90
11136;DHT22;5622;50.840;4.948;2022-11-20T06:26:32;4.50;99.90
11136;DHT22;5622;50.840;4.948;2022-11-20T06:28:59;5.10;99.90
11136;DHT22;5622;50.840;4.948;2022-11-20T06:31:27;4.50;99.90
11136;DHT22;5622;50.840;4.948;2022-11-20T06:33:54;4.50;99.90
11136;DHT22;5622;50.840;4.948;2022-11-20T06:36:22;4.50;99.90
11136;DHT22;5622;50.840;4.948;2022-11-20T06:38:50;5.20;99.90
11136;DHT22;5622;50.840;4.948;2022-11-20T06:41:19;4.70;99.90
11136;DHT22;5622;50.840;4.948;2022-11-20T06:43:47;4.60;99.90
11136;DHT22;5622;50.840;4.948;2022-11-20T06:46:15;5.00;99.90
11136;DHT22;5622;50.840;4.948;2022-11-20T06:48:43;5.70;99.90
11136;DHT22;5622;50.840;4.948;2022-11-20T06:51:10;5.10;99.90
11136;DHT22;5622;50.840;4.948;2022-11-20T06:53:38;4.80;99.90
11136;DHT22;5622;50.840;4.948;2022-11-20T06:56:07;5.40;99.90
11136;DHT22;5622;50.840;4.948;2022-11-20T06:58:35;4.70;99.90
11136;DHT22;5622;50.840;4.948;2022-11-20T07:01:04;4.80;99.90
11136;DHT22;5622;50.840;4.948;2022-11-20T07:03:31;4.80;99.90
11136;DHT22;5622;50.840;4.948;2022-11-20T07:06:00;4.80;99.90
11136;DHT22;5622;50.840;4.948;2022-11-20T07:08:27;4.80;99.90
11136;DHT22;5622;50.840;4.948;2022-11-20T07:10:59;4.80;99.90
11136;DHT22;5622;50.840;4.948;2022-11-20T07:13:28;5.70;99.90
11136;DHT22;5622;50.840;4.948;2022-11-20T07:15:59;5.00;99.90
11136;DHT22;5622;50.840;4.948;2022-11-20T07:18:26;4.80;99.90
11136;DHT22;5622;50.840;4.948;2022-11-20T07:20:53;4.80;99.90
11136;DHT22;5622;50.840;4.948;2022-11-20T07:23:20;4.80;99.90
11136;DHT22;5622;50.840;4.948;2022-11-20T07:25:47;4.90;99.90
11136;DHT22;5622;50.840;4.948;2022-11-20T07:28:14;4.90;99.90
11136;DHT22;5622;50.840;4.948;2022-11-20T07:30:43;5.60;99.90
11136;DHT22;5622;50.840;4.948;2022-11-20T07:33:15;5.70;99.90
11136;DHT22;5622;50.840;4.948;2022-11-20T07:35:42;5.00;99.90
11136;DHT22;5622;50.840;4.948;2022-11-20T07:38:09;5.00;99.90
11136;DHT22;5622;50.840;4.948;2022-11-20T07:40:36;5.20;99.90
11136;DHT22;5622;50.840;4.948;2022-11-20T07:43:03;5.10;99.90
11136;DHT22;5622;50.840;4.948;2022-11-20T07:45:30;5.40;99.90
11136;DHT22;5622;50.840;4.948;2022-11-20T07:47:59;5.60;99.90
11136;DHT22;5622;50.840;4.948;2022-11-20T07:50:26;5.10;99.90
11136;DHT22;5622;50.840;4.948;2022-11-20T07:53:01;5.50;99.90
11136;DHT22;5622;50.840;4.948;2022-11-20T07:55:29;5.20;99.90
11136;DHT22;5622;50.840;4.948;2022-11-20T07:57:56;6.20;99.90
11136;DHT22;5622;50.840;4.948;2022-11-20T08:00:24;5.30;99.90
11136;DHT22;5622;50.840;4.948;2022-11-20T08:02:52;5.30;99.90
11136;DHT22;5622;50.840;4.948;2022-11-20T08:05:20;6.30;99.90
11136;DHT22;5622;50.840;4.948;2022-11-20T08:07:47;5.30;99.90
11136;DHT22;5622;50.840;4.948;2022-11-20T08:10:15;5.70;99.90
11136;DHT22;5622;50.840;4.948;2022-11-20T08:12:46;5.30;99.90
11136;DHT22;5622;50.840;4.948;2022-11-20T08:15:31;5.30;99.90
11136;DHT22;5622;50.840;4.948;2022-11-20T08:18:02;5.30;99.90
11136;DHT22;5622;50.840;4.948;2022-11-20T08:20:31;5.80;99.90
11136;DHT22;5622;50.840;4.948;2022-11-20T08:22:59;5.40;99.90
11136;DHT22;5622;50.840;4.948;2022-11-20T08:25:27;5.40;99.90
11136;DHT22;5622;50.840;4.948;2022-11-20T08:27:57;5.80;99.90
11136;DHT22;5622;50.840;4.948;2022-11-20T08:30:24;6.00;99.90
11136;DHT22;5622;50.840;4.948;2022-11-20T08:32:52;5.50;99.90
11136;DHT22;5622;50.840;4.948;2022-11-20T08:35:19;5.50;99.90
11136;DHT22;5622;50.840;4.948;2022-11-20T08:37:48;5.50;99.90
11136;DHT22;5622;50.840;4.948;2022-11-20T08:40:15;5.60;99.90
11136;DHT22;5622;50.840;4.948;2022-11-20T08:42:49;5.60;99.90
11136;DHT22;5622;50.840;4.948;2022-11-20T08:45:16;5.90;99.90
11136;DHT22;5622;50.840;4.948;2022-11-20T08:47:44;5.70;99.90
11136;DHT22;5622;50.840;4.948;2022-11-20T08:50:13;5.70;99.90
11136;DHT22;5622;50.840;4.948;2022-11-20T08:52:40;6.70;99.90
11136;DHT22;5622;50.840;4.948;2022-11-20T08:55:09;5.70;99.90
11136;DHT22;5622;50.840;4.948;2022-11-20T08:57:37;5.80;99.90
11136;DHT22;5622;50.840;4.948;2022-11-20T09:00:06;5.80;99.90
11136;DHT22;5622;50.840;4.948;2022-11-20T09:02:34;5.80;99.90
11136;DHT22;5622;50.840;4.948;2022-11-20T09:05:01;5.80;99.90
11136;DHT22;5622;50.840;4.948;2022-11-20T09:07:29;5.80;99.90
11136;DHT22;5622;50.840;4.948;2022-11-20T09:09:56;6.40;99.90
11136;DHT22;5622;50.840;4.948;2022-11-20T09:12:25;5.90;99.90
11136;DHT22;5622;50.840;4.948;2022-11-20T09:14:52;6.40;99.90
11136;DHT22;5622;50.840;4.948;2022-11-20T09:17:19;6.00;99.90
11136;DHT22;5622;50.840;4.948;2022-11-20T09:19:47;6.60;99.90
11136;DHT22;5622;50.840;4.948;2022-11-20T09:22:14;6.80;99.90
11136;DHT22;5622;50.840;4.948;2022-11-20T09:24:41;6.20;99.90
11136;DHT22;5622;50.840;4.948;2022-11-20T09:27:08;6.20;99.90
11136;DHT22;5622;50.840;4.948;2022-11-20T09:29:37;6.60;99.90
11136;DHT22;5622;50.840;4.948;2022-11-20T09:32:04;6.20;99.90
11136;DHT22;5622;50.840;4.948;2022-11-20T09:34:32;6.20;99.90
11136;DHT22;5622;50.840;4.948;2022-11-20T09:36:59;6.20;99.90
11136;DHT22;5622;50.840;4.948;2022-11-20T09:39:26;6.20;99.90
11136;DHT22;5622;50.840;4.948;2022-11-20T09:42:15;6.60;99.90
11136;DHT22;5622;50.840;4.948;2022-11-20T09:44:55;6.30;99.90
11136;DHT22;5622;50.840;4.948;2022-11-20T09:47:36;6.30;99.90
11136;DHT22;5622;50.840;4.948;2022-11-20T09:50:23;6.60;99.90
11136;DHT22;5622;50.840;4.948;2022-11-20T09:53:16;6.40;99.90
11136;DHT22;5622;50.840;4.948;2022-11-20T09:55:47;6.40;99.90
11136;DHT22;5622;50.840;4.948;2022-11-20T09:58:24;6.50;99.90
11136;DHT22;5622;50.840;4.948;2022-11-20T10:00:57;6.60;99.90
11136;DHT22;5622;50.840;4.948;2022-11-20T10:03:37;6.60;99.90
11136;DHT22;5622;50.840;4.948;2022-11-20T10:06:11;7.10;99.90
11136;DHT22;5622;50.840;4.948;2022-11-20T10:08:41;6.70;99.90
11136;DHT22;5622;50.840;4.948;2022-11-20T10:11:15;6.90;99.90
11136;DHT22;5622;50.840;4.948;2022-11-20T10:13:52;6.70;99.90
11136;DHT22;5622;50.840;4.948;2022-11-20T10:16:28;6.80;99.90
11136;DHT22;5622;50.840;4.948;2022-11-20T10:19:10;6.80;99.90
11136;DHT22;5622;50.840;4.948;2022-11-20T10:22:01;6.90;99.90
11136;DHT22;5622;50.840;4.948;2022-11-20T10:24:44;7.20;99.90
11136;DHT22;5622;50.840;4.948;2022-11-20T10:27:36;7.00;99.90
11136;DHT22;5622;50.840;4.948;2022-11-20T10:30:09;7.00;99.90
11136;DHT22;5622;50.840;4.948;2022-11-20T10:32:40;7.10;99.90
11136;DHT22;5622;50.840;4.948;2022-11-20T10:35:16;7.10;99.90
11136;DHT22;5622;50.840;4.948;2022-11-20T10:37:49;7.20;99.90
11136;DHT22;5622;50.840;4.948;2022-11-20T10:40:23;7.20;99.90
11136;DHT22;5622;50.840;4.948;2022-11-20T10:42:56;7.20;99.90
11136;DHT22;5622;50.840;4.948;2022-11-20T10:45:36;7.30;99.90
11136;DHT22;5622;50.840;4.948;2022-11-20T10:48:14;7.40;99.90
11136;DHT22;5622;50.840;4.948;2022-11-20T10:50:49;7.40;99.90
11136;DHT22;5622;50.840;4.948;2022-11-20T10:56:19;7.50;99.90
11136;DHT22;5622;50.840;4.948;2022-11-20T10:58:56;7.70;99.90
11136;DHT22;5622;50.840;4.948;2022-11-20T11:01:26;7.60;99.90
11136;DHT22;5622;50.840;4.948;2022-11-20T11:03:55;7.70;99.90
11136;DHT22;5622;50.840;4.948;2022-11-20T11:06:31;7.70;99.90
11136;DHT22;5622;50.840;4.948;2022-11-20T11:09:02;7.80;99.90
11136;DHT22;5622;50.840;4.948;2022-11-20T11:11:33;7.80;99.90
11136;DHT22;5622;50.840;4.948;2022-11-20T11:14:06;7.80;99.90
11136;DHT22;5622;50.840;4.948;2022-11-20T11:16:33;7.90;99.90
11136;DHT22;5622;50.840;4.948;2022-11-20T11:19:07;7.90;99.90
11136;DHT22;5622;50.840;4.948;2022-11-20T11:21:38;8.00;99.90
11136;DHT22;5622;50.840;4.948;2022-11-20T11:24:23;8.00;99.90
11136;DHT22;5622;50.840;4.948;2022-11-20T11:26:53;8.30;99.90
11136;DHT22;5622;50.840;4.948;2022-11-20T11:29:21;8.10;99.90
11136;DHT22;5622;50.840;4.948;2022-11-20T11:31:49;8.20;99.90
11136;DHT22;5622;50.840;4.948;2022-11-20T11:34:17;8.10;99.90
11136;DHT22;5622;50.840;4.948;2022-11-20T11:36:54;8.10;99.90
11136;DHT22;5622;50.840;4.948;2022-11-20T11:39:23;8.10;99.90
11136;DHT22;5622;50.840;4.948;2022-11-20T11:41:51;8.30;99.90
11136;DHT22;5622;50.840;4.948;2022-11-20T11:44:20;8.10;99.90
11136;DHT22;5622;50.840;4.948;2022-11-20T11:47:10;8.20;99.90
11136;DHT22;5622;50.840;4.948;2022-11-20T11:49:42;8.20;99.90
11136;DHT22;5622;50.840;4.948;2022-11-20T11:52:13;8.10;99.90
11136;DHT22;5622;50.840;4.948;2022-11-20T11:54:46;8.70;99.90
11136;DHT22;5622;50.840;4.948;2022-11-20T11:57:22;8.10;99.90
11136;DHT22;5622;50.840;4.948;2022-11-20T12:00:00;8.90;99.90
11136;DHT22;5622;50.840;4.948;2022-11-20T12:02:36;8.40;99.90
11136;DHT22;5622;50.840;4.948;2022-11-20T12:05:16;8.20;99.90
11136;DHT22;5622;50.840;4.948;2022-11-20T12:07:47;8.10;99.90
11136;DHT22;5622;50.840;4.948;2022-11-20T12:10:19;8.20;99.90
11136;DHT22;5622;50.840;4.948;2022-11-20T12:12:51;8.30;99.90
11136;DHT22;5622;50.840;4.948;2022-11-20T12:15:26;8.20;99.90
11136;DHT22;5622;50.840;4.948;2022-11-20T12:17:55;8.70;99.90
11136;DHT22;5622;50.840;4.948;2022-11-20T12:20:27;8.10;99.90
11136;DHT22;5622;50.840;4.948;2022-11-20T12:23:01;8.10;99.90
11136;DHT22;5622;50.840;4.948;2022-11-20T12:25:31;8.20;99.90
11136;DHT22;5622;50.840;4.948;2022-11-20T12:28:22;8.20;99.90
11136;DHT22;5622;50.840;4.948;2022-11-20T12:31:09;8.20;99.90
11136;DHT22;5622;50.840;4.948;2022-11-20T12:33:59;8.20;99.90
11136;DHT22;5622;50.840;4.948;2022-11-20T12:36:39;9.30;99.90
11136;DHT22;5622;50.840;4.948;2022-11-20T12:39:29;8.10;99.90
11136;DHT22;5622;50.840;4.948;2022-11-20T12:45:32;8.10;99.90
11136;DHT22;5622;50.840;4.948;2022-11-20T12:48:17;8.10;99.90
11136;DHT22;5622;50.840;4.948;2022-11-20T12:50:52;8.10;99.90
11136;DHT22;5622;50.840;4.948;2022-11-20T12:53:33;8.00;99.90
11136;DHT22;5622;50.840;4.948;2022-11-20T12:56:12;8.00;99.90
11136;DHT22;5622;50.840;4.948;2022-11-20T12:58:46;8.00;99.90
11136;DHT22;5622;50.840;4.948;2022-11-20T13:01:25;8.00;99.90
11136;DHT22;5622;50.840;4.948;2022-11-20T13:04:16;8.00;99.90
11136;DHT22;5622;50.840;4.948;2022-11-20T13:06:44;8.00;99.90
11136;DHT22;5622;50.840;4.948;2022-11-20T13:09:16;8.00;99.90
11136;DHT22;5622;50.840;4.948;2022-11-20T13:11:49;8.00;99.90
11136;DHT22;5622;50.840;4.948;2022-11-20T13:14:29;8.10;99.90
11136;DHT22;5622;50.840;4.948;2022-11-20T13:17:02;8.00;99.90
11136;DHT22;5622;50.840;4.948;2022-11-20T13:19:32;8.00;99.90
11136;DHT22;5622;50.840;4.948;2022-11-20T13:21:59;8.00;99.90
11136;DHT22;5622;50.840;4.948;2022-11-20T13:24:30;8.40;99.90
11136;DHT22;5622;50.840;4.948;2022-11-20T13:27:17;8.00;99.90
11136;DHT22;5622;50.840;4.948;2022-11-20T13:29:47;8.40;99.90
11136;DHT22;5622;50.840;4.948;2022-11-20T13:32:25;8.00;99.90
11136;DHT22;5622;50.840;4.948;2022-11-20T13:34:54;8.00;99.90
11136;DHT22;5622;50.840;4.948;2022-11-20T13:37:28;8.00;99.90
11136;DHT22;5622;50.840;4.948;2022-11-20T13:40:13;8.00;99.90
11136;DHT22;5622;50.840;4.948;2022-11-20T13:42:44;8.60;99.90
11136;DHT22;5622;50.840;4.948;2022-11-20T13:45:22;8.00;99.90
11136;DHT22;5622;50.840;4.948;2022-11-20T13:47:51;8.00;99.90
11136;DHT22;5622;50.840;4.948;2022-11-20T13:50:19;8.00;99.90
11136;DHT22;5622;50.840;4.948;2022-11-20T13:52:55;8.10;99.90
11136;DHT22;5622;50.840;4.948;2022-11-20T13:55:36;8.10;99.90
11136;DHT22;5622;50.840;4.948;2022-11-20T13:58:19;8.00;99.90
11136;DHT22;5622;50.840;4.948;2022-11-20T14:00:54;8.00;99.90
11136;DHT22;5622;50.840;4.948;2022-11-20T14:03:24;8.00;99.90
11136;DHT22;5622;50.840;4.948;2022-11-20T14:05:55;8.00;99.90
11136;DHT22;5622;50.840;4.948;2022-11-20T14:08:28;8.20;99.90
11136;DHT22;5622;50.840;4.948;2022-11-20T14:11:12;8.00;99.90
11136;DHT22;5622;50.840;4.948;2022-11-20T14:13:49;8.00;99.90
11136;DHT22;5622;50.840;4.948;2022-11-20T14:16:19;8.00;99.90
11136;DHT22;5622;50.840;4.948;2022-11-20T14:18:46;8.00;99.90
11136;DHT22;5622;50.840;4.948;2022-11-20T14:21:22;8.00;99.90
11136;DHT22;5622;50.840;4.948;2022-11-20T14:23:51;8.10;99.90
11136;DHT22;5622;50.840;4.948;2022-11-20T14:26:20;7.90;99.90
11136;DHT22;5622;50.840;4.948;2022-11-20T14:28:49;8.20;99.90
11136;DHT22;5622;50.840;4.948;2022-11-20T14:31:23;7.90;99.90
11136;DHT22;5622;50.840;4.948;2022-11-20T14:33:51;8.00;99.90
11136;DHT22;5622;50.840;4.948;2022-11-20T14:36:20;8.00;99.90
11136;DHT22;5622;50.840;4.948;2022-11-20T14:38:49;8.00;99.90
11136;DHT22;5622;50.840;4.948;2022-11-20T14:41:18;8.00;99.90
11136;DHT22;5622;50.840;4.948;2022-11-20T14:43:51;7.90;99.90
11136;DHT22;5622;50.840;4.948;2022-11-20T14:46:21;8.20;99.90
11136;DHT22;5622;50.840;4.948;2022-11-20T14:48:51;8.00;99.90
11136;DHT22;5622;50.840;4.948;2022-11-20T14:51:29;8.00;99.90
11136;DHT22;5622;50.840;4.948;2022-11-20T14:54:08;8.00;99.90
11136;DHT22;5622;50.840;4.948;2022-11-20T14:56:35;8.00;99.90
11136;DHT22;5622;50.840;4.948;2022-11-20T14:59:04;8.00;99.90
11136;DHT22;5622;50.840;4.948;2022-11-20T15:01:33;8.00;99.90
11136;DHT22;5622;50.840;4.948;2022-11-20T15:04:04;8.80;99.90
11136;DHT22;5622;50.840;4.948;2022-11-20T15:06:32;8.30;99.90
11136;DHT22;5622;50.840;4.948;2022-11-20T15:08:59;8.00;99.90
11136;DHT22;5622;50.840;4.948;2022-11-20T15:11:29;8.20;99.90
11136;DHT22;5622;50.840;4.948;2022-11-20T15:13:59;8.10;99.90
11136;DHT22;5622;50.840;4.948;2022-11-20T15:16:30;8.80;99.90
11136;DHT22;5622;50.840;4.948;2022-11-20T15:18:58;8.10;99.90
11136;DHT22;5622;50.840;4.948;2022-11-20T15:21:26;8.10;99.90
11136;DHT22;5622;50.840;4.948;2022-11-20T15:23:54;8.10;99.90
11136;DHT22;5622;50.840;4.948;2022-11-20T15:26:24;8.10;99.90
11136;DHT22;5622;50.840;4.948;2022-11-20T15:28:52;8.10;99.90
11136;DHT22;5622;50.840;4.948;2022-11-20T15:31:20;8.10;99.90
11136;DHT22;5622;50.840;4.948;2022-11-20T15:33:49;8.20;99.90
11136;DHT22;5622;50.840;4.948;2022-11-20T15:36:17;8.20;99.90
11136;DHT22;5622;50.840;4.948;2022-11-20T15:38:44;8.80;99.90
11136;DHT22;5622;50.840;4.948;2022-11-20T15:41:11;8.20;99.90
11136;DHT22;5622;50.840;4.948;2022-11-20T15:43:38;8.30;99.90
11136;DHT22;5622;50.840;4.948;2022-11-20T15:46:09;8.10;99.90
11136;DHT22;5622;50.840;4.948;2022-11-20T15:48:39;8.10;99.90
11136;DHT22;5622;50.840;4.948;2022-11-20T15:51:19;8.10;99.90
11136;DHT22;5622;50.840;4.948;2022-11-20T15:53:48;8.10;99.90
11136;DHT22;5622;50.840;4.948;2022-11-20T15:56:15;8.20;99.90
11136;DHT22;5622;50.840;4.948;2022-11-20T15:58:42;8.20;99.90
11136;DHT22;5622;50.840;4.948;2022-11-20T16:01:10;8.20;99.90
11136;DHT22;5622;50.840;4.948;2022-11-20T16:03:38;8.20;99.90
11136;DHT22;5622;50.840;4.948;2022-11-20T16:06:05;8.20;99.90
11136;DHT22;5622;50.840;4.948;2022-11-20T16:08:34;8.20;99.90
11136;DHT22;5622;50.840;4.948;2022-11-20T16:11:01;8.20;99.90
11136;DHT22;5622;50.840;4.948;2022-11-20T16:13:31;8.20;99.90
11136;DHT22;5622;50.840;4.948;2022-11-20T16:16:20;8.30;99.90
11136;DHT22;5622;50.840;4.948;2022-11-20T16:18:47;8.30;99.90
11136;DHT22;5622;50.840;4.948;2022-11-20T16:21:15;8.20;99.90
11136;DHT22;5622;50.840;4.948;2022-11-20T16:23:43;8.30;99.90
11136;DHT22;5622;50.840;4.948;2022-11-20T16:26:11;8.30;99.90
11136;DHT22;5622;50.840;4.948;2022-11-20T16:28:39;8.30;99.90